Time;durP1;ratioP1;P1;durP2;ratioP2;P2;SDS_P1;SDS_P2;PMS_P1;PMS_P2;Temp;Humidity;BMP_temperature;BMP_pressure;BME280_temperature;BME280_humidity;BME280_pressure;Samples;Min_cycle;Max_cycle;Signal;HPM_P1;HPM_P2
2023/01/03 00:02:17;;;;;;;5.35;3.20;;;;;;;;;;4848533;29;20378;-60
2023/01/03 00:04:42;;;;;;;6.10;3.28;;;;;;;;;;4875939;29;20397;-60
2023/01/03 00:07:08;;;;;;;5.68;3.53;;;;;;;;;;4850398;29;20473;-60
2023/01/03 00:09:33;;;;;;;4.53;3.10;;;;;;;;;;4848006;29;20064;-61
2023/01/03 00:14:42;;;;;;;4.60;3.10;;;;;;;;;;4850592;29;20109;-61
2023/01/03 00:17:09;;;;;;;4.15;2.80;;;;;;;;;;4850345;29;20568;-60
2023/01/03 00:19:36;;;;;;;4.85;3.08;;;;;;;;;;4847825;29;20044;-59
2023/01/03 00:22:02;;;;;;;5.40;3.08;;;;;;;;;;4848393;29;20085;-60
2023/01/03 00:24:28;;;;;;;5.32;3.20;;;;;;;;;;4847164;29;20033;-60
2023/01/03 00:26:53;;;;;;;4.82;3.10;;;;;;;;;;4849838;29;20029;-60
2023/01/03 00:29:18;;;;;;;4.70;3.38;;;;;;;;;;4877422;29;20036;-59
2023/01/03 00:31:43;;;;;;;4.85;3.17;;;;;;;;;;4877396;29;20037;-60
2023/01/03 00:34:09;;;;;;;5.00;2.83;;;;;;;;;;4847327;29;20034;-60
2023/01/03 00:36:35;;;;;;;5.88;3.33;;;;;;;;;;4848434;29;20423;-60
2023/01/03 00:39:01;;;;;;;6.55;3.40;;;;;;;;;;4863020;29;20038;-59
2023/01/03 00:41:26;;;;;;;5.07;3.30;;;;;;;;;;4848564;29;20519;-60
2023/01/03 00:43:51;;;;;;;4.32;2.72;;;;;;;;;;4847133;29;20436;-61
2023/01/03 00:46:18;;;;;;;5.88;2.80;;;;;;;;;;4848136;29;20025;-60
2023/01/03 00:48:44;;;;;;;4.65;2.80;;;;;;;;;;4849562;29;20100;-60
2023/01/03 00:51:11;;;;;;;6.05;3.17;;;;;;;;;;4848722;29;20041;-60
2023/01/03 00:53:36;;;;;;;;;;;;;;;;;;4849717;29;20034;-60
2023/01/03 00:56:02;;;;;;;8.43;4.17;;;;;;;;;;4876142;29;19931;-60
2023/01/03 00:58:32;;;;;;;11.13;5.13;;;;;;;;;;4849227;29;20449;-62
2023/01/03 01:01:03;;;;;;;11.70;5.30;;;;;;;;;;4847573;29;20038;-60
2023/01/03 01:03:28;;;;;;;8.75;4.53;;;;;;;;;;4845546;29;20036;-60
2023/01/03 01:05:53;;;;;;;7.28;4.25;;;;;;;;;;4849108;29;20049;-59
2023/01/03 01:08:19;;;;;;;7.28;3.90;;;;;;;;;;4847109;29;20112;-60
2023/01/03 01:11:00;;;;;;;5.97;3.47;;;;;;;;;;4847849;29;20037;-61
2023/01/03 01:13:27;;;;;;;5.78;2.97;;;;;;;;;;4847579;29;20029;-59
2023/01/03 01:15:52;;;;;;;4.75;2.90;;;;;;;;;;4849042;29;20034;-59
2023/01/03 01:18:17;;;;;;;4.03;2.60;;;;;;;;;;4849231;29;20037;-59
2023/01/03 01:20:43;;;;;;;4.70;2.83;;;;;;;;;;4849207;29;20481;-59
2023/01/03 01:23:08;;;;;;;7.28;3.70;;;;;;;;;;4846581;29;20037;-59
2023/01/03 01:25:33;;;;;;;8.38;3.70;;;;;;;;;;4850433;29;20489;-59
2023/01/03 01:27:58;;;;;;;8.68;4.20;;;;;;;;;;4847703;29;20029;-59
2023/01/03 01:30:24;;;;;;;6.90;3.88;;;;;;;;;;4846467;29;20062;-59
2023/01/03 01:32:49;;;;;;;7.88;3.67;;;;;;;;;;4849899;29;20382;-60
2023/01/03 01:35:14;;;;;;;7.15;3.50;;;;;;;;;;4855828;29;20045;-59
2023/01/03 01:37:40;;;;;;;6.57;3.50;;;;;;;;;;4876268;29;20493;-60
2023/01/03 01:40:07;;;;;;;6.22;3.33;;;;;;;;;;4864953;29;20066;-60
2023/01/03 01:45:16;;;;;;;6.03;3.30;;;;;;;;;;4850866;29;20117;-60
2023/01/03 01:47:44;;;;;;;6.05;3.38;;;;;;;;;;4847156;29;20026;-60
2023/01/03 01:50:13;;;;;;;5.03;2.88;;;;;;;;;;4877325;29;20064;-60
2023/01/03 01:52:40;;;;;;;5.43;3.28;;;;;;;;;;4846743;29;20184;-59
2023/01/03 01:55:07;;;;;;;5.90;2.88;;;;;;;;;;4849543;29;20495;-60
2023/01/03 01:57:34;;;;;;;5.85;3.60;;;;;;;;;;4846991;29;20469;-60
2023/01/03 02:00:00;;;;;;;6.25;3.33;;;;;;;;;;4850386;29;20052;-60
2023/01/03 02:02:26;;;;;;;8.45;3.50;;;;;;;;;;4880252;29;20045;-60
2023/01/03 02:04:52;;;;;;;4.47;3.30;;;;;;;;;;4849731;29;20036;-60
2023/01/03 02:07:20;;;;;;;7.60;3.45;;;;;;;;;;4877010;29;20466;-59
2023/01/03 02:09:46;;;;;;;6.28;3.58;;;;;;;;;;4848833;29;20557;-60
2023/01/03 02:15:20;;;;;;;5.57;3.50;;;;;;;;;;4850333;29;20038;-59
2023/01/03 02:17:48;;;;;;;4.90;3.30;;;;;;;;;;4848101;29;20033;-59
2023/01/03 02:20:16;;;;;;;7.72;3.47;;;;;;;;;;4850957;29;20029;-60
2023/01/03 02:22:50;;;;;;;6.00;2.92;;;;;;;;;;4847881;29;20094;-60
2023/01/03 02:25:16;;;;;;;5.28;3.70;;;;;;;;;;4847369;29;20053;-60
2023/01/03 02:28:04;;;;;;;4.82;3.15;;;;;;;;;;4846507;29;20044;-60
2023/01/03 02:30:50;;;;;;;5.43;3.20;;;;;;;;;;4850167;29;20333;-61
2023/01/03 02:33:22;;;;;;;5.97;3.10;;;;;;;;;;4848322;29;20046;-61
2023/01/03 02:35:59;;;;;;;4.47;2.92;;;;;;;;;;4848526;29;20033;-60
2023/01/03 02:38:27;;;;;;;4.22;2.80;;;;;;;;;;4845414;29;20101;-59
2023/01/03 02:41:12;;;;;;;4.55;2.92;;;;;;;;;;4846706;29;20037;-59
2023/01/03 02:43:41;;;;;;;6.18;2.70;;;;;;;;;;4847909;29;20626;-59
2023/01/03 02:46:06;;;;;;;4.13;2.53;;;;;;;;;;4853103;29;20499;-59
2023/01/03 02:48:34;;;;;;;4.65;2.70;;;;;;;;;;4844749;29;20113;-62
2023/01/03 02:51:01;;;;;;;8.40;2.80;;;;;;;;;;4882804;29;20461;-60
2023/01/03 02:53:30;;;;;;;3.65;2.70;;;;;;;;;;4851177;29;20045;-59
2023/01/03 02:55:57;;;;;;;3.90;2.72;;;;;;;;;;4852598;29;20401;-61
2023/01/03 02:58:25;;;;;;;5.63;2.90;;;;;;;;;;4856012;29;20044;-60
2023/01/03 03:00:54;;;;;;;3.80;2.60;;;;;;;;;;4866695;29;20057;-59
2023/01/03 03:03:22;;;;;;;4.47;2.72;;;;;;;;;;4849811;29;20075;-59
2023/01/03 03:05:51;;;;;;;4.00;2.55;;;;;;;;;;4880782;29;20033;-59
2023/01/03 03:08:16;;;;;;;4.97;2.60;;;;;;;;;;4852322;29;20839;-59
2023/01/03 03:13:32;;;;;;;6.00;3.30;;;;;;;;;;4843744;29;20489;-59
2023/01/03 03:16:15;;;;;;;6.10;3.17;;;;;;;;;;4855498;29;20069;-59
2023/01/03 03:19:00;;;;;;;6.25;2.95;;;;;;;;;;4880912;29;20037;-60
2023/01/03 03:28:33;;;;;;;4.40;2.60;;;;;;;;;;4851815;29;20044;-61
2023/01/03 03:29:52;;;;;;;8.77;3.17;;;;;;;;;;4848650;29;20120;-60
2023/01/03 03:32:17;;;;;;;4.40;2.90;;;;;;;;;;4849490;29;20037;-59
2023/01/03 03:34:44;;;;;;;6.50;3.08;;;;;;;;;;4850884;29;20038;-59
2023/01/03 03:37:15;;;;;;;4.83;2.93;;;;;;;;;;4847924;29;20034;-59
2023/01/03 03:45:38;;;;;;;6.20;2.80;;;;;;;;;;4879030;29;20069;-60
2023/01/03 03:48:10;;;;;;;5.05;2.88;;;;;;;;;;4850046;29;20045;-59
2023/01/03 03:50:46;;;;;;;8.60;2.97;;;;;;;;;;4849105;29;20158;-60
2023/01/03 03:53:13;;;;;;;6.70;3.72;;;;;;;;;;4850571;29;20041;-60
2023/01/03 03:55:48;;;;;;;7.18;3.40;;;;;;;;;;4848618;29;20397;-60
2023/01/03 03:58:22;;;;;;;6.85;3.45;;;;;;;;;;4848667;29;20800;-58
2023/01/03 04:00:50;;;;;;;6.93;3.50;;;;;;;;;;4847604;29;20061;-58
2023/01/03 04:03:15;;;;;;;;;;;;;;;;;;4852866;29;20416;-59
2023/01/03 04:05:44;;;;;;;6.30;3.90;;;;;;;;;;4851863;29;19957;-59
2023/01/03 04:08:10;;;;;;;8.75;3.90;;;;;;;;;;4849343;29;20082;-59
2023/01/03 04:10:35;;;;;;;5.38;3.63;;;;;;;;;;4847644;29;20049;-60
2023/01/03 04:13:01;;;;;;;5.25;3.75;;;;;;;;;;4877460;29;20045;-60
2023/01/03 04:15:26;;;;;;;5.57;3.80;;;;;;;;;;4847193;29;20566;-59
2023/01/03 04:17:51;;;;;;;7.35;4.25;;;;;;;;;;4850290;29;20042;-59
2023/01/03 04:20:18;;;;;;;6.88;4.50;;;;;;;;;;4849501;29;20045;-59
2023/01/03 04:22:43;;;;;;;5.78;4.22;;;;;;;;;;4853750;29;20033;-59
2023/01/03 04:25:08;;;;;;;6.43;4.30;;;;;;;;;;4848905;29;20045;-59
2023/01/03 04:27:34;;;;;;;6.95;3.65;;;;;;;;;;4847158;29;20040;-59
2023/01/03 04:29:59;;;;;;;7.43;2.80;;;;;;;;;;4850823;29;20041;-59
2023/01/03 04:32:24;;;;;;;4.57;2.80;;;;;;;;;;4878269;29;20046;-60
2023/01/03 04:34:50;;;;;;;4.13;2.80;;;;;;;;;;4845716;29;20038;-60
2023/01/03 04:37:15;;;;;;;5.55;2.85;;;;;;;;;;4848694;29;20034;-59
2023/01/03 04:39:40;;;;;;;5.63;2.88;;;;;;;;;;4876629;29;20065;-59
2023/01/03 04:44:00;;;;;;;4.97;3.20;;;;;;;;;;4846825;29;20675;-59
2023/01/03 04:44:51;;;;;;;6.15;3.53;;;;;;;;;;4845993;29;20049;-59
2023/01/03 04:47:16;;;;;;;6.75;3.75;;;;;;;;;;4847629;29;20388;-59
2023/01/03 04:49:45;;;;;;;6.22;3.67;;;;;;;;;;4845430;29;20610;-59
2023/01/03 04:52:11;;;;;;;5.60;3.35;;;;;;;;;;4849308;29;20214;-59
2023/01/03 04:54:37;;;;;;;8.82;3.97;;;;;;;;;;4847065;29;20500;-60
2023/01/03 04:57:03;;;;;;;7.18;3.70;;;;;;;;;;4850024;29;20499;-59
2023/01/03 04:59:28;;;;;;;7.03;3.55;;;;;;;;;;4850021;29;20033;-59
2023/01/03 05:01:53;;;;;;;7.20;4.13;;;;;;;;;;4878004;29;20042;-60
2023/01/03 05:04:19;;;;;;;7.25;4.00;;;;;;;;;;4848383;29;20434;-59
2023/01/03 05:06:44;;;;;;;6.68;3.72;;;;;;;;;;4846646;29;20061;-59
2023/01/03 05:09:09;;;;;;;5.65;3.03;;;;;;;;;;4851389;29;20033;-59
2023/01/03 05:11:35;;;;;;;4.65;2.70;;;;;;;;;;4848840;29;20774;-58
2023/01/03 05:14:00;;;;;;;10.57;4.93;;;;;;;;;;4878160;29;20056;-59
2023/01/03 05:16:26;;;;;;;7.95;4.00;;;;;;;;;;4849213;29;20040;-60
2023/01/03 05:18:52;;;;;;;5.88;3.30;;;;;;;;;;4845387;29;20490;-59
2023/01/03 05:26:47;;;;;;;6.18;3.70;;;;;;;;;;4848785;29;20065;-60
2023/01/03 05:29:14;;;;;;;7.38;3.55;;;;;;;;;;4846322;29;20112;-60
2023/01/03 05:31:39;;;;;;;4.90;3.33;;;;;;;;;;4876308;29;20073;-60
2023/01/03 05:34:05;;;;;;;5.25;3.17;;;;;;;;;;4850174;29;20046;-61
2023/01/03 05:36:30;;;;;;;7.47;3.70;;;;;;;;;;4848266;29;20037;-59
2023/01/03 05:38:55;;;;;;;8.38;4.22;;;;;;;;;;4847632;29;20034;-59
2023/01/03 05:44:05;;;;;;;8.38;3.65;;;;;;;;;;4845890;29;20294;-59
2023/01/03 05:46:31;;;;;;;10.80;4.80;;;;;;;;;;4849326;29;20029;-59
2023/01/03 05:48:56;;;;;;;5.88;3.70;;;;;;;;;;4848740;29;20523;-59
2023/01/03 05:51:21;;;;;;;10.63;4.05;;;;;;;;;;4847186;29;20041;-59
2023/01/03 05:53:46;;;;;;;6.40;3.88;;;;;;;;;;4849158;29;20037;-59
2023/01/03 05:56:12;;;;;;;6.78;4.43;;;;;;;;;;4847832;29;20108;-59
2023/01/03 05:58:37;;;;;;;8.95;4.05;;;;;;;;;;4849963;29;20544;-59
2023/01/03 06:01:09;;;;;;;6.35;3.83;;;;;;;;;;4848271;29;20101;-59
2023/01/03 06:03:34;;;;;;;5.82;3.33;;;;;;;;;;4852701;29;20057;-61
2023/01/03 06:06:03;;;;;;;5.35;3.20;;;;;;;;;;4847903;29;20112;-59
2023/01/03 06:08:29;;;;;;;6.90;3.65;;;;;;;;;;4846770;29;20038;-59
2023/01/03 06:10:54;;;;;;;10.32;4.25;;;;;;;;;;4873128;29;20033;-59
2023/01/03 06:13:20;;;;;;;12.40;4.45;;;;;;;;;;4846911;29;20124;-59
2023/01/03 06:17:53;;;;;;;11.90;5.47;;;;;;;;;;4878019;29;20033;-59
2023/01/03 06:18:32;;;;;;;10.40;4.95;;;;;;;;;;4849488;29;20037;-59
2023/01/03 06:20:58;;;;;;;7.63;4.70;;;;;;;;;;4843894;29;20569;-59
2023/01/03 06:23:23;;;;;;;7.65;4.70;;;;;;;;;;4849136;29;20034;-59
2023/01/03 06:25:48;;;;;;;8.50;4.65;;;;;;;;;;4852211;29;20128;-59
2023/01/03 06:28:14;;;;;;;9.82;4.97;;;;;;;;;;4850670;29;20041;-60
2023/01/03 06:30:40;;;;;;;8.43;4.97;;;;;;;;;;4851291;29;20481;-59
2023/01/03 06:33:06;;;;;;;8.20;4.45;;;;;;;;;;4850676;29;20088;-61
2023/01/03 06:35:31;;;;;;;7.25;4.32;;;;;;;;;;4849220;29;20026;-60
2023/01/03 06:37:56;;;;;;;8.05;4.45;;;;;;;;;;4849402;29;20186;-60
2023/01/03 06:40:21;;;;;;;7.30;3.97;;;;;;;;;;4852014;29;20381;-60
2023/01/03 06:42:47;;;;;;;6.45;3.78;;;;;;;;;;4851731;29;20041;-60
2023/01/03 06:53:27;;;;;;;13.40;6.25;;;;;;;;;;4880234;29;20048;-61
2023/01/03 06:55:52;;;;;;;11.27;6.18;;;;;;;;;;4851158;29;20084;-62
2023/01/03 06:58:17;;;;;;;8.05;4.85;;;;;;;;;;4852593;29;20136;-62
2023/01/03 07:00:43;;;;;;;9.63;5.38;;;;;;;;;;4850637;29;20073;-60
2023/01/03 07:03:09;;;;;;;12.50;5.45;;;;;;;;;;4851324;29;20073;-61
2023/01/03 07:05:34;;;;;;;11.48;5.68;;;;;;;;;;4853032;29;20068;-59
2023/01/03 07:07:59;;;;;;;12.07;5.40;;;;;;;;;;4851438;29;20485;-60
2023/01/03 07:10:25;;;;;;;9.77;5.28;;;;;;;;;;4851574;29;20140;-60
2023/01/03 07:15:34;;;;;;;11.25;5.05;;;;;;;;;;4850450;29;20037;-60
2023/01/03 07:18:00;;;;;;;11.23;5.13;;;;;;;;;;4848866;29;20537;-60
2023/01/03 07:20:28;;;;;;;8.75;4.32;;;;;;;;;;4878146;29;20029;-60
2023/01/03 07:22:53;;;;;;;8.93;4.25;;;;;;;;;;4850348;29;20120;-60
2023/01/03 07:25:19;;;;;;;10.98;4.95;;;;;;;;;;4848796;29;20112;-61
2023/01/03 07:27:52;;;;;;;10.30;4.88;;;;;;;;;;4851887;29;20033;-61
2023/01/03 07:30:17;;;;;;;9.63;5.63;;;;;;;;;;4852088;29;20076;-58
2023/01/03 07:32:43;;;;;;;11.75;6.25;;;;;;;;;;4854179;29;20159;-60
2023/01/03 07:35:08;;;;;;;10.32;5.82;;;;;;;;;;4880516;29;20034;-58
2023/01/03 07:37:33;;;;;;;10.27;5.82;;;;;;;;;;4848725;29;20048;-59
2023/01/03 07:39:59;;;;;;;15.10;6.60;;;;;;;;;;4872992;29;20042;-59
2023/01/03 07:45:08;;;;;;;12.02;6.55;;;;;;;;;;4849234;29;20045;-58
2023/01/03 07:47:34;;;;;;;10.35;6.43;;;;;;;;;;4877262;29;20048;-58
2023/01/03 07:49:59;;;;;;;11.45;5.97;;;;;;;;;;4848017;29;20558;-58
2023/01/03 07:52:26;;;;;;;13.20;6.90;;;;;;;;;;4849970;29;20042;-59
2023/01/03 07:54:51;;;;;;;11.18;7.25;;;;;;;;;;4850155;29;20096;-60
2023/01/03 07:57:16;;;;;;;11.13;6.00;;;;;;;;;;4884091;29;20052;-60
2023/01/03 07:59:42;;;;;;;14.05;7.60;;;;;;;;;;4856490;29;20487;-60
2023/01/03 08:02:07;;;;;;;13.45;7.72;;;;;;;;;;4851223;29;20060;-59
2023/01/03 08:04:33;;;;;;;15.40;8.25;;;;;;;;;;4854537;29;20469;-60
2023/01/03 08:06:58;;;;;;;15.48;7.97;;;;;;;;;;4878187;29;20416;-60
2023/01/03 08:14:51;;;;;;;13.10;8.43;;;;;;;;;;4853566;29;20124;-60
2023/01/03 08:17:16;;;;;;;15.45;9.55;;;;;;;;;;4852635;29;20144;-61
2023/01/03 08:19:42;;;;;;;14.80;9.35;;;;;;;;;;4856699;29;20085;-60
2023/01/03 08:22:07;;;;;;;16.63;10.02;;;;;;;;;;4852824;29;20041;-60
2023/01/03 08:24:32;;;;;;;15.20;10.20;;;;;;;;;;4878378;29;20040;-60
2023/01/03 08:26:58;;;;;;;16.33;10.63;;;;;;;;;;4850185;29;20069;-60
2023/01/03 08:29:23;;;;;;;19.95;11.60;;;;;;;;;;4851939;29;20120;-60
2023/01/03 08:31:51;;;;;;;15.63;10.35;;;;;;;;;;4854176;29;20030;-60
2023/01/03 08:34:17;;;;;;;18.90;8.73;;;;;;;;;;4862589;29;20037;-59
2023/01/03 08:36:44;;;;;;;14.60;8.68;;;;;;;;;;4855269;29;20052;-60
2023/01/03 08:39:12;;;;;;;14.05;8.45;;;;;;;;;;4869692;29;20519;-59
2023/01/03 08:41:40;;;;;;;12.88;7.30;;;;;;;;;;4862927;29;20036;-60
2023/01/03 08:44:08;;;;;;;14.60;7.80;;;;;;;;;;4855006;29;20030;-60
2023/01/03 08:46:33;;;;;;;15.32;8.20;;;;;;;;;;4852004;29;20167;-60
2023/01/03 08:48:59;;;;;;;13.38;8.30;;;;;;;;;;4858314;29;20045;-60
2023/01/03 08:51:25;;;;;;;12.02;8.10;;;;;;;;;;4866109;29;20510;-60
2023/01/03 08:53:51;;;;;;;15.40;9.43;;;;;;;;;;4856092;29;20037;-60
2023/01/03 08:56:17;;;;;;;17.23;11.32;;;;;;;;;;4855157;29;20037;-62
2023/01/03 08:58:42;;;;;;;22.77;15.15;;;;;;;;;;4871964;29;20047;-60
2023/01/03 09:01:10;;;;;;;21.98;15.60;;;;;;;;;;4857376;29;20037;-60
2023/01/03 09:03:35;;;;;;;32.13;18.20;;;;;;;;;;4851676;29;20045;-60
2023/01/03 09:06:01;;;;;;;18.58;9.93;;;;;;;;;;4854350;29;20033;-60
2023/01/03 09:08:29;;;;;;;13.45;8.30;;;;;;;;;;4853985;29;20044;-60
2023/01/03 09:10:54;;;;;;;;;;;;;;;;;;4881196;29;20512;-60
2023/01/03 09:13:19;;;;;;;21.30;10.55;;;;;;;;;;4853574;29;20381;-59
2023/01/03 09:15:44;;;;;;;21.63;10.50;;;;;;;;;;4851647;29;20488;-60
2023/01/03 09:18:10;;;;;;;19.00;11.02;;;;;;;;;;4853159;29;20033;-60
2023/01/03 09:20:35;;;;;;;37.03;19.88;;;;;;;;;;4854037;29;20409;-60
2023/01/03 09:23:00;;;;;;;52.38;26.30;;;;;;;;;;4852371;29;20042;-61
2023/01/03 09:25:26;;;;;;;59.78;29.48;;;;;;;;;;4851724;29;20076;-60
2023/01/03 09:27:51;;;;;;;50.97;26.42;;;;;;;;;;4851596;29;20161;-60
2023/01/03 09:30:18;;;;;;;47.33;23.58;;;;;;;;;;4850787;29;20025;-60
2023/01/03 09:32:43;;;;;;;;;;;;;;;;;;4852793;29;20038;-60
2023/01/03 09:35:09;;;;;;;39.15;19.90;;;;;;;;;;4850244;29;19920;-61
2023/01/03 09:37:34;;;;;;;35.85;19.73;;;;;;;;;;4852489;29;20112;-60
2023/01/03 09:39:59;;;;;;;41.22;20.55;;;;;;;;;;4855344;29;20137;-60
2023/01/03 09:45:12;;;;;;;35.20;18.77;;;;;;;;;;4855857;29;20088;-60
2023/01/03 09:47:38;;;;;;;29.27;16.77;;;;;;;;;;4852504;29;20583;-60
2023/01/03 09:50:05;;;;;;;27.50;15.13;;;;;;;;;;4862596;29;20472;-60
2023/01/03 10:04:05;;;;;;;17.40;12.13;;;;;;;;;;4855450;29;20029;-60
2023/01/03 10:06:34;;;;;;;13.63;9.02;;;;;;;;;;4858170;29;20097;-60
2023/01/03 10:09:11;;;;;;;15.07;9.80;;;;;;;;;;4878067;29;20046;-60
2023/01/03 10:12:01;;;;;;;17.50;9.27;;;;;;;;;;4850271;29;20473;-59
2023/01/03 10:14:35;;;;;;;15.70;9.13;;;;;;;;;;4851771;29;20038;-60
2023/01/03 10:17:06;;;;;;;10.48;6.97;;;;;;;;;;4850633;29;20037;-60
2023/01/03 10:19:34;;;;;;;13.18;8.02;;;;;;;;;;4850228;29;20064;-60
2023/01/03 10:22:11;;;;;;;20.10;9.32;;;;;;;;;;4854914;29;20044;-60
2023/01/03 10:24:43;;;;;;;27.42;9.55;;;;;;;;;;4851942;29;20484;-60
2023/01/03 10:27:16;;;;;;;14.60;8.07;;;;;;;;;;4878468;29;20060;-59
2023/01/03 10:29:42;;;;;;;11.32;7.82;;;;;;;;;;4848511;29;20552;-60
2023/01/03 10:32:26;;;;;;;12.02;8.20;;;;;;;;;;4858124;29;20065;-60
2023/01/03 10:35:00;;;;;;;13.63;8.50;;;;;;;;;;4851424;29;20244;-60
2023/01/03 10:37:26;;;;;;;12.15;8.30;;;;;;;;;;4851973;29;20101;-60
2023/01/03 10:40:00;;;;;;;11.95;8.75;;;;;;;;;;4848395;29;20493;-62
2023/01/03 10:42:28;;;;;;;11.52;8.05;;;;;;;;;;4849636;29;20068;-60
2023/01/03 10:44:59;;;;;;;13.02;7.68;;;;;;;;;;4851321;29;20048;-62
2023/01/03 10:47:25;;;;;;;12.60;7.35;;;;;;;;;;4847274;29;20057;-60
2023/01/03 10:49:56;;;;;;;12.82;7.82;;;;;;;;;;4864387;29;20045;-60
2023/01/03 10:52:22;;;;;;;14.43;8.73;;;;;;;;;;4850008;29;20128;-60
2023/01/03 10:54:50;;;;;;;14.73;10.15;;;;;;;;;;4879859;29;20136;-61
2023/01/03 10:57:35;;;;;;;14.80;9.90;;;;;;;;;;4849842;29;20511;-60
2023/01/03 11:00:00;;;;;;;17.08;9.95;;;;;;;;;;4854903;29;20040;-60
2023/01/03 11:02:25;;;;;;;17.98;9.35;;;;;;;;;;4846974;29;20045;-60
2023/01/03 11:05:04;;;;;;;13.73;9.45;;;;;;;;;;4848292;29;20037;-61
2023/01/03 11:07:29;;;;;;;14.77;9.73;;;;;;;;;;4851191;29;20346;-60
2023/01/03 11:09:55;;;;;;;12.43;8.73;;;;;;;;;;4852284;29;20426;-59
2023/01/03 11:12:28;;;;;;;14.30;8.35;;;;;;;;;;4868784;29;20435;-60
2023/01/03 11:14:55;;;;;;;14.85;9.13;;;;;;;;;;4882247;29;20045;-60
2023/01/03 11:17:21;;;;;;;14.13;7.53;;;;;;;;;;4856062;29;20045;-59
2023/01/03 11:19:47;;;;;;;12.13;7.37;;;;;;;;;;4858481;29;20134;-60
2023/01/03 11:22:31;;;;;;;11.00;6.00;;;;;;;;;;4873659;29;20033;-59
2023/01/03 11:24:57;;;;;;;7.75;4.68;;;;;;;;;;4855205;29;20081;-60
2023/01/03 11:27:31;;;;;;;6.53;3.90;;;;;;;;;;4855816;29;20108;-60
2023/01/03 11:30:05;;;;;;;5.70;3.38;;;;;;;;;;4855395;29;20029;-60
2023/01/03 11:32:51;;;;;;;6.20;3.50;;;;;;;;;;4850367;29;20034;-60
2023/01/03 11:35:16;;;;;;;5.18;3.10;;;;;;;;;;4850166;29;20117;-60
2023/01/03 11:37:54;;;;;;;4.53;2.80;;;;;;;;;;4846771;29;20466;-61
2023/01/03 11:40:38;;;;;;;4.90;2.85;;;;;;;;;;4851022;29;20097;-60
2023/01/03 11:43:12;;;;;;;3.10;2.22;;;;;;;;;;4850503;29;20056;-60
2023/01/03 11:45:40;;;;;;;5.28;2.47;;;;;;;;;;4849965;29;20619;-60
2023/01/03 11:48:24;;;;;;;4.00;2.40;;;;;;;;;;4850015;29;20045;-60
2023/01/03 11:50:58;;;;;;;5.60;2.63;;;;;;;;;;4849428;29;20098;-60
2023/01/03 11:53:23;;;;;;;4.28;2.15;;;;;;;;;;4851831;29;20144;-60
2023/01/03 11:56:08;;;;;;;4.75;2.10;;;;;;;;;;4849142;29;20033;-60
2023/01/03 11:58:33;;;;;;;4.25;2.03;;;;;;;;;;4849383;29;20038;-60
2023/01/03 12:01:02;;;;;;;4.82;2.33;;;;;;;;;;4877544;29;20044;-61
2023/01/03 12:03:44;;;;;;;4.82;2.10;;;;;;;;;;4845400;29;20129;-60
2023/01/03 12:06:14;;;;;;;3.58;2.00;;;;;;;;;;4849974;29;20129;-60
2023/01/03 12:08:43;;;;;;;4.53;2.10;;;;;;;;;;4849649;29;20041;-60
2023/01/03 12:11:08;;;;;;;3.70;1.92;;;;;;;;;;4850387;29;20511;-60
2023/01/03 12:13:53;;;;;;;4.57;1.80;;;;;;;;;;4851716;29;20034;-60
2023/01/03 12:16:30;;;;;;;3.45;1.85;;;;;;;;;;4848120;29;20031;-60
2023/01/03 12:18:55;;;;;;;3.17;1.63;;;;;;;;;;4851463;29;20045;-60
2023/01/03 12:21:34;;;;;;;2.50;1.50;;;;;;;;;;4849850;29;20476;-60
2023/01/03 12:24:02;;;;;;;3.42;1.65;;;;;;;;;;4850403;29;20048;-59
2023/01/03 12:26:28;;;;;;;3.95;1.80;;;;;;;;;;4846872;29;20146;-60
2023/01/03 12:29:00;;;;;;;2.78;1.67;;;;;;;;;;4851300;29;20038;-60
2023/01/03 12:31:28;;;;;;;4.50;1.70;;;;;;;;;;4851711;29;20033;-61
2023/01/03 12:33:53;;;;;;;3.58;1.52;;;;;;;;;;4880776;29;20104;-61
2023/01/03 12:36:33;;;;;;;5.23;1.77;;;;;;;;;;4849676;29;20129;-61
2023/01/03 12:39:11;;;;;;;4.00;1.58;;;;;;;;;;4846718;29;20411;-59
2023/01/03 12:41:48;;;;;;;2.85;1.60;;;;;;;;;;4851358;29;20069;-60
2023/01/03 12:44:24;;;;;;;3.15;1.60;;;;;;;;;;4850311;29;20120;-60
2023/01/03 12:46:51;;;;;;;4.13;1.90;;;;;;;;;;4850982;29;20508;-60
2023/01/03 12:49:40;;;;;;;2.78;1.63;;;;;;;;;;4846229;29;20034;-60
2023/01/03 12:52:09;;;;;;;2.90;1.70;;;;;;;;;;4852383;29;20048;-60
2023/01/03 12:54:38;;;;;;;3.33;1.70;;;;;;;;;;4850840;29;20465;-61
2023/01/03 12:57:03;;;;;;;2.28;1.63;;;;;;;;;;4851011;29;20370;-60
2023/01/03 12:59:35;;;;;;;3.40;1.53;;;;;;;;;;4850147;29;20061;-60
2023/01/03 13:02:27;;;;;;;4.60;1.98;;;;;;;;;;4847405;29;20064;-60
2023/01/03 13:04:57;;;;;;;2.95;1.70;;;;;;;;;;4852518;29;20053;-61
2023/01/03 13:07:30;;;;;;;4.78;1.80;;;;;;;;;;4848351;29;20037;-61
2023/01/03 13:10:05;;;;;;;4.00;1.70;;;;;;;;;;4855662;29;20037;-61
2023/01/03 13:12:33;;;;;;;3.03;1.75;;;;;;;;;;4851324;29;20636;-62
2023/01/03 13:15:02;;;;;;;3.08;1.80;;;;;;;;;;4856259;29;20046;-60
2023/01/03 13:17:28;;;;;;;3.40;1.60;;;;;;;;;;4850508;29;20090;-61
2023/01/03 13:19:54;;;;;;;2.65;1.55;;;;;;;;;;4854297;29;20525;-60
2023/01/03 13:22:19;;;;;;;2.60;1.40;;;;;;;;;;4850349;29;20033;-60
2023/01/03 13:24:51;;;;;;;3.90;1.57;;;;;;;;;;4851719;29;20033;-60
2023/01/03 13:27:16;;;;;;;3.33;1.63;;;;;;;;;;4850548;29;20105;-60
2023/01/03 13:29:43;;;;;;;3.67;1.53;;;;;;;;;;4882875;29;20074;-60
2023/01/03 13:32:21;;;;;;;2.60;1.58;;;;;;;;;;4851725;29;20594;-60
2023/01/03 13:34:55;;;;;;;3.13;1.77;;;;;;;;;;4881971;29;20038;-60
2023/01/03 13:37:43;;;;;;;4.03;1.90;;;;;;;;;;4853552;29;20094;-60
2023/01/03 13:40:17;;;;;;;3.42;1.60;;;;;;;;;;4858252;29;20045;-60
2023/01/03 13:42:42;;;;;;;3.03;1.50;;;;;;;;;;4851253;29;20450;-61
2023/01/03 13:45:14;;;;;;;6.60;1.50;;;;;;;;;;4849684;29;20037;-60
2023/01/03 13:47:39;;;;;;;3.47;1.58;;;;;;;;;;4855895;29;20109;-60
2023/01/03 13:50:17;;;;;;;3.00;1.67;;;;;;;;;;4849130;29;20037;-60
2023/01/03 13:52:57;;;;;;;4.10;1.70;;;;;;;;;;4851880;29;20102;-60
2023/01/03 13:55:48;;;;;;;3.53;1.50;;;;;;;;;;4848699;29;20037;-59
2023/01/03 13:58:32;;;;;;;3.50;1.77;;;;;;;;;;4849677;29;20461;-60
2023/01/03 14:00:59;;;;;;;1.63;1.10;;;;;;;;;;4856241;29;20072;-60
2023/01/03 14:03:24;;;;;;;;;;;;;;;;;;4853207;29;20477;-60
2023/01/03 14:05:52;;;;;;;3.43;1.60;;;;;;;;;;4851539;29;20035;-60
2023/01/03 14:08:24;;;;;;;3.65;1.40;;;;;;;;;;4851527;29;20038;-59
2023/01/03 14:11:04;;;;;;;2.25;1.48;;;;;;;;;;4851912;29;20397;-60
2023/01/03 14:13:35;;;;;;;3.33;1.50;;;;;;;;;;4847749;29;20045;-60
2023/01/03 14:16:03;;;;;;;2.40;1.10;;;;;;;;;;4858445;29;20036;-60
2023/01/03 14:18:29;;;;;;;2.28;1.20;;;;;;;;;;4852480;29;20045;-60
2023/01/03 14:20:56;;;;;;;3.47;1.60;;;;;;;;;;4851512;29;20033;-60
2023/01/03 14:23:23;;;;;;;2.30;1.27;;;;;;;;;;4850686;29;20038;-60
2023/01/03 14:25:48;;;;;;;;;;;;;;;;;;4855216;29;20029;-60
2023/01/03 14:28:24;;;;;;;4.10;1.63;;;;;;;;;;4852434;29;20291;-60
2023/01/03 14:30:58;;;;;;;4.18;1.50;;;;;;;;;;4883663;29;20033;-60
2023/01/03 14:33:24;;;;;;;4.07;1.20;;;;;;;;;;4850383;29;20061;-60
2023/01/03 14:36:19;;;;;;;2.83;1.35;;;;;;;;;;4854794;29;20640;-60
2023/01/03 14:38:50;;;;;;;2.70;1.40;;;;;;;;;;4854844;29;20063;-60
2023/01/03 14:41:36;;;;;;;3.08;1.33;;;;;;;;;;4858712;29;20056;-60
2023/01/03 14:44:08;;;;;;;2.97;1.70;;;;;;;;;;4854477;29;20033;-60
2023/01/03 14:46:34;;;;;;;1.92;1.40;;;;;;;;;;4856675;29;20029;-60
2023/01/03 14:49:01;;;;;;;3.85;1.50;;;;;;;;;;4882013;29;20077;-60
2023/01/03 14:51:28;;;;;;;3.88;1.85;;;;;;;;;;4853707;29;20038;-59
2023/01/03 14:53:55;;;;;;;3.95;1.88;;;;;;;;;;4855229;29;20312;-59
2023/01/03 14:56:22;;;;;;;5.30;1.90;;;;;;;;;;4852123;29;20029;-58
2023/01/03 14:58:48;;;;;;;5.15;1.98;;;;;;;;;;4882163;29;20156;-61
2023/01/03 15:01:14;;;;;;;5.82;2.75;;;;;;;;;;4882466;29;20041;-61
2023/01/03 15:03:43;;;;;;;7.45;2.38;;;;;;;;;;4853021;29;20033;-61
2023/01/03 15:06:20;;;;;;;4.45;2.40;;;;;;;;;;4856858;29;20117;-58
2023/01/03 15:08:46;;;;;;;;;;;;;;;;;;4885646;29;20036;-59
2023/01/03 15:11:11;;;;;;;4.47;2.30;;;;;;;;;;4851577;29;19919;-59
2023/01/03 15:13:46;;;;;;;2.92;1.80;;;;;;;;;;4880371;29;20498;-59
2023/01/03 15:16:18;;;;;;;3.53;2.00;;;;;;;;;;4882256;29;20041;-59
2023/01/03 15:18:44;;;;;;;3.50;2.10;;;;;;;;;;4860366;29;20043;-59
2023/01/03 15:21:14;;;;;;;4.70;2.10;;;;;;;;;;4856572;29;20037;-61
2023/01/03 15:23:41;;;;;;;4.97;2.25;;;;;;;;;;4859243;29;20034;-59
2023/01/03 15:26:07;;;;;;;;;;;;;;;;;;4853854;29;20041;-59
2023/01/03 15:28:36;;;;;;;10.32;4.53;;;;;;;;;;4849378;29;19920;-59
2023/01/03 15:31:12;;;;;;;12.15;4.82;;;;;;;;;;4873464;29;20043;-60
2023/01/03 15:33:39;;;;;;;12.77;5.63;;;;;;;;;;4847592;29;20041;-60
2023/01/03 15:36:11;;;;;;;14.50;6.35;;;;;;;;;;4838969;29;20057;-60
2023/01/03 15:38:41;;;;;;;10.20;5.38;;;;;;;;;;4865920;29;20124;-60
2023/01/03 15:43:18;;;;;;;8.57;4.32;;;;;;;;;;4852957;29;20037;-60
2023/01/03 15:44:05;;;;;;;10.60;3.53;;;;;;;;;;4842258;29;20033;-60
2023/01/03 15:46:30;;;;;;;6.30;3.65;;;;;;;;;;4845204;29;20497;-60
2023/01/03 15:48:56;;;;;;;5.85;3.65;;;;;;;;;;4876078;29;20221;-60
2023/01/03 15:51:21;;;;;;;7.20;3.70;;;;;;;;;;4841971;29;20037;-60
2023/01/03 15:53:46;;;;;;;6.53;3.80;;;;;;;;;;4846157;29;20041;-60
2023/01/03 15:56:19;;;;;;;9.98;4.40;;;;;;;;;;4844081;29;20033;-60